Time;durP1;ratioP1;P1;durP2;ratioP2;P2;SDS_P1;SDS_P2;PMS_P1;PMS_P2;Temp;Humidity;BMP_temperature;BMP_pressure;BME280_temperature;BME280_humidity;BME280_pressure;Samples;Min_cycle;Max_cycle;Signal;HPM_P1;HPM_P2
2021/01/12 04:00:44;;;;;;;14.33;9.20;;;;;;;-2.38;100.00;101097.70;1763314;77;21227;-69
2021/01/12 04:03:13;;;;;;;13.65;8.33;;;;;;;-2.36;100.00;101096.70;1751371;80;21425;-70
2021/01/12 04:05:41;;;;;;;13.55;8.95;;;;;;;-2.35;100.00;101089.86;1752418;80;21509;-68
2021/01/12 04:08:10;;;;;;;12.58;8.43;;;;;;;-2.32;100.00;101094.36;1783903;79;21053;-69
2021/01/12 04:10:39;;;;;;;12.00;7.12;;;;;;;-2.30;100.00;101084.91;1783010;78;21178;-70
2021/01/12 04:13:07;;;;;;;12.73;8.15;;;;;;;-2.27;100.00;101079.64;1778881;79;21077;-70
2021/01/12 04:15:36;;;;;;;12.68;8.00;;;;;;;-2.24;100.00;101084.56;1776692;79;21395;-69
2021/01/12 04:18:04;;;;;;;14.80;9.03;;;;;;;-2.22;100.00;101075.56;1777975;79;21183;-70
2021/01/12 04:20:33;;;;;;;13.40;8.65;;;;;;;-2.21;100.00;101075.47;1777995;79;21550;-69
2021/01/12 04:23:02;;;;;;;15.78;9.83;;;;;;;-2.19;100.00;101075.87;1780161;78;20998;-70
2021/01/12 04:25:31;;;;;;;43.02;22.25;;;;;;;-2.18;100.00;101074.95;1774480;79;21080;-70
2021/01/12 04:28:00;;;;;;;42.50;20.88;;;;;;;-2.19;100.00;101077.97;1781803;79;21306;-70
2021/01/12 04:30:31;;;;;;;21.85;12.90;;;;;;;-2.18;100.00;101077.51;1777262;79;21195;-69
2021/01/12 04:33:00;;;;;;;20.30;12.37;;;;;;;-2.20;100.00;101072.46;1781850;79;21064;-69
2021/01/12 04:35:29;;;;;;;19.77;11.95;;;;;;;-2.25;100.00;101070.16;1773940;79;21557;-69
2021/01/12 04:37:58;;;;;;;20.37;12.53;;;;;;;-2.30;100.00;101062.38;1780720;79;21480;-70
2021/01/12 04:40:27;;;;;;;19.85;12.65;;;;;;;-2.30;100.00;101061.10;1772117;79;22560;-70
2021/01/12 04:42:58;;;;;;;24.80;12.75;;;;;;;-2.28;100.00;101052.44;1776505;80;20990;-70
2021/01/12 04:45:27;;;;;;;35.85;18.15;;;;;;;-2.27;100.00;101054.11;1777393;79;21589;-70
2021/01/12 04:47:55;;;;;;;30.97;15.83;;;;;;;-2.27;100.00;101043.89;1781377;79;21120;-72
2021/01/12 04:50:24;;;;;;;25.80;14.58;;;;;;;-2.26;100.00;101047.27;1775122;79;21099;-66
2021/01/12 04:52:52;;;;;;;17.95;11.00;;;;;;;-2.25;100.00;101040.79;1776583;79;23582;-68
2021/01/12 04:55:21;;;;;;;18.60;11.65;;;;;;;-2.23;100.00;101028.77;1780824;79;21140;-67
2021/01/12 04:57:50;;;;;;;19.85;11.70;;;;;;;-2.21;100.00;101026.95;1756202;80;21180;-67
2021/01/12 05:00:25;;;;;;;15.58;10.20;;;;;;;-2.18;100.00;101028.98;1756579;80;21215;-68
2021/01/12 05:03:06;;;;;;;17.98;11.20;;;;;;;-2.19;100.00;101033.27;1723117;81;21032;-68
2021/01/12 05:05:37;;;;;;;20.85;12.13;;;;;;;-2.23;100.00;101046.66;1775343;79;21215;-70
2021/01/12 05:08:07;;;;;;;20.05;13.30;;;;;;;-2.24;100.00;101049.27;1774741;79;21056;-70
2021/01/12 05:13:21;;;;;;;19.20;11.57;;;;;;;-2.22;100.00;101045.73;1824739;78;22133;-69
2021/01/12 05:15:49;;;;;;;20.65;13.28;;;;;;;-2.32;100.00;101050.95;1795860;79;21041;-70
2021/01/12 05:18:18;;;;;;;22.85;13.25;;;;;;;-2.36;100.00;101044.36;1793072;79;21143;-67
2021/01/12 05:20:50;;;;;;;22.32;14.13;;;;;;;-2.35;100.00;101055.39;1797750;78;21140;-69
2021/01/12 05:23:23;;;;;;;38.67;23.32;;;;;;;-2.33;100.00;101060.80;1798997;78;20942;-69
2021/01/12 05:25:53;;;;;;;29.12;18.17;;;;;;;-2.31;100.00;101067.95;1804006;78;21168;-68
2021/01/12 05:28:22;;;;;;;27.55;17.67;;;;;;;-2.29;100.00;101061.47;1801903;79;21077;-67
2021/01/12 05:30:51;;;;;;;30.55;18.05;;;;;;;-2.28;100.00;101056.27;1800009;79;21198;-66
2021/01/12 05:33:19;;;;;;;23.57;15.25;;;;;;;-2.27;100.00;101059.22;1795780;78;21057;-67
2021/01/12 05:35:49;;;;;;;53.35;31.42;;;;;;;-2.25;100.00;101068.06;1805757;79;21741;-66
2021/01/12 05:38:28;;;;;;;30.45;18.75;;;;;;;-2.25;100.00;101070.61;1794253;79;21225;-67
2021/01/12 05:40:59;;;;;;;24.60;15.53;;;;;;;-2.24;100.00;101070.52;1796845;78;21180;-67
2021/01/12 05:43:37;;;;;;;24.00;14.75;;;;;;;-2.25;100.00;101068.88;1800550;78;21180;-67
2021/01/12 05:46:13;;;;;;;27.42;16.15;;;;;;;-2.25;100.00;101072.71;1807736;79;21081;-66
2021/01/12 05:48:44;;;;;;;32.55;19.25;;;;;;;-2.23;100.00;101084.96;1795087;79;21126;-69
2021/01/12 05:51:15;;;;;;;39.10;21.95;;;;;;;-2.21;100.00;101089.52;1807058;79;21211;-68
2021/01/12 05:53:49;;;;;;;38.13;22.05;;;;;;;-2.18;100.00;101084.71;1796006;79;21101;-69
2021/01/12 05:56:25;;;;;;;30.77;19.95;;;;;;;-2.17;100.00;101072.77;1800214;78;21945;-69
2021/01/12 05:58:54;;;;;;;36.48;22.22;;;;;;;-2.16;100.00;101078.23;1799982;79;20994;-69
2021/01/12 06:01:49;;;;;;;42.58;24.85;;;;;;;-2.15;100.00;101081.19;1812724;79;21053;-69
2021/01/12 06:04:17;;;;;;;35.08;21.73;;;;;;;-2.15;100.00;101076.89;1801017;79;20923;-70
2021/01/12 06:06:50;;;;;;;35.52;19.12;;;;;;;-2.12;100.00;101073.33;1794465;79;21663;-70
2021/01/12 06:09:19;;;;;;;30.23;18.77;;;;;;;-2.09;100.00;101074.00;1805514;78;21319;-68
2021/01/12 06:11:51;;;;;;;31.48;19.62;;;;;;;-2.06;100.00;101088.34;1800374;79;21872;-68
2021/01/12 06:14:26;;;;;;;31.15;18.40;;;;;;;-2.05;100.00;101097.65;1775266;79;20931;-72
2021/01/12 06:16:55;;;;;;;32.45;18.98;;;;;;;-2.03;100.00;101099.23;1782034;79;21003;-70
2021/01/12 06:19:25;;;;;;;30.88;18.65;;;;;;;-1.99;100.00;101099.89;1787970;79;21074;-68
2021/01/12 06:21:59;;;;;;;29.15;16.80;;;;;;;-1.95;100.00;101103.93;1788282;79;21211;-69
2021/01/12 06:24:42;;;;;;;33.05;19.52;;;;;;;-1.94;100.00;101113.23;1755041;79;21125;-70
2021/01/12 06:27:28;;;;;;;27.58;17.57;;;;;;;-1.92;100.00;101117.00;1780282;79;21020;-67
2021/01/12 06:30:05;;;;;;;32.65;18.85;;;;;;;-1.89;100.00;101123.23;1775657;79;21109;-68
2021/01/12 06:32:35;;;;;;;29.60;15.68;;;;;;;-1.88;100.00;101136.38;1792423;79;21110;-69
2021/01/12 06:35:09;;;;;;;30.30;17.60;;;;;;;-1.87;100.00;101141.85;1775386;78;21230;-67
2021/01/12 06:37:40;;;;;;;33.60;18.27;;;;;;;-1.86;100.00;101140.94;1788576;79;21572;-67
2021/01/12 06:40:10;;;;;;;28.42;16.77;;;;;;;-1.86;100.00;101132.81;1776168;79;21570;-68
2021/01/12 06:42:38;;;;;;;33.88;19.23;;;;;;;-1.84;100.00;101136.13;1786881;79;20934;-66
2021/01/12 06:45:08;;;;;;;33.60;19.75;;;;;;;-1.81;100.00;101130.86;1778323;79;21093;-67
2021/01/12 06:47:37;;;;;;;31.55;17.35;;;;;;;-1.79;100.00;101127.75;1782444;79;22357;-68
2021/01/12 06:50:11;;;;;;;39.30;20.27;;;;;;;-1.73;100.00;101124.05;1779072;79;21100;-65
2021/01/12 06:52:49;;;;;;;41.40;21.48;;;;;;;-1.68;100.00;101113.58;1784625;79;20951;-67
2021/01/12 06:55:19;;;;;;;35.60;20.43;;;;;;;-1.65;100.00;101121.91;1782714;79;21074;-67
2021/01/12 06:57:50;;;;;;;38.50;21.82;;;;;;;-1.60;100.00;101120.38;1779767;79;21094;-68
2021/01/12 07:00:20;;;;;;;36.53;20.52;;;;;;;-1.58;100.00;101122.41;1776319;78;22303;-68
2021/01/12 07:02:58;;;;;;;33.23;18.85;;;;;;;-1.56;100.00;101120.11;1772010;80;20932;-67
2021/01/12 07:05:41;;;;;;;27.82;17.77;;;;;;;-1.55;100.00;101119.69;1776063;80;20914;-67
2021/01/12 07:08:10;;;;;;;30.82;18.45;;;;;;;-1.56;100.00;101119.29;1773892;80;20935;-67
2021/01/12 07:10:46;;;;;;;32.05;17.87;;;;;;;-1.54;100.00;101118.77;1773218;80;21096;-68
2021/01/12 07:13:15;;;;;;;27.82;16.90;;;;;;;-1.51;100.00;101106.64;1785530;79;21380;-68
2021/01/12 07:15:46;;;;;;;29.85;17.57;;;;;;;-1.45;100.00;101104.64;1785529;79;20990;-68
2021/01/12 07:18:22;;;;;;;26.42;16.73;;;;;;;-1.38;100.00;101102.13;1775418;79;21343;-68
2021/01/12 07:20:50;;;;;;;27.10;16.10;;;;;;;-1.31;100.00;101113.66;1763013;79;21576;-68
2021/01/12 07:23:20;;;;;;;28.62;17.80;;;;;;;-1.27;100.00;101116.41;1789158;79;20963;-68
2021/01/12 07:25:49;;;;;;;28.25;16.80;;;;;;;-1.27;100.00;101118.52;1723762;79;21432;-69
2021/01/12 07:28:23;;;;;;;30.02;17.20;;;;;;;-1.23;100.00;101116.61;1769907;79;21141;-68
2021/01/12 07:30:53;;;;;;;28.92;17.48;;;;;;;-1.20;100.00;101112.61;1788203;79;21172;-68
2021/01/12 07:33:23;;;;;;;35.90;20.85;;;;;;;-1.16;100.00;101124.77;1768486;79;21579;-68
2021/01/12 07:35:53;;;;;;;30.23;19.25;;;;;;;-1.12;100.00;101131.36;1779818;79;21142;-68
2021/01/12 07:38:27;;;;;;;40.92;21.77;;;;;;;-1.12;100.00;101137.30;1786412;79;21284;-71
2021/01/12 07:41:00;;;;;;;29.12;17.82;;;;;;;-1.10;100.00;101137.20;1783746;79;21117;-70
2021/01/12 07:43:30;;;;;;;41.45;23.87;;;;;;;-1.05;100.00;101137.78;1785374;79;20999;-69
2021/01/12 07:46:01;;;;;;;54.25;28.52;;;;;;;-1.02;100.00;101133.78;1785086;79;20999;-69
2021/01/12 07:48:30;;;;;;;34.40;19.73;;;;;;;-1.03;100.00;101123.97;1788756;79;21142;-70
2021/01/12 07:51:00;;;;;;;27.52;15.15;;;;;;;-1.00;100.00;101121.70;1768901;79;22359;-69
2021/01/12 07:53:33;;;;;;;44.85;25.17;;;;;;;-0.93;100.00;101119.62;1785795;79;21584;-70
2021/01/12 07:56:03;;;;;;;50.23;28.52;;;;;;;-0.86;100.00;101123.03;1793471;79;21116;-70
2021/01/12 07:58:32;;;;;;;35.73;19.32;;;;;;;-0.79;100.00;101128.17;1787890;79;21136;-72
2021/01/12 08:01:01;;;;;;;30.23;16.90;;;;;;;-0.71;100.00;101121.78;1786246;79;21149;-71
2021/01/12 08:03:31;;;;;;;42.05;23.60;;;;;;;-0.64;100.00;101121.80;1785923;79;21578;-71
2021/01/12 08:06:00;;;;;;;39.15;22.37;;;;;;;-0.60;100.00;101127.10;1794443;79;21014;-71
2021/01/12 08:08:30;;;;;;;38.38;21.95;;;;;;;-0.58;100.00;101129.92;1784036;79;21141;-71
2021/01/12 08:10:58;;;;;;;38.33;22.60;;;;;;;-0.58;100.00;101120.95;1790204;79;20987;-71
2021/01/12 08:13:27;;;;;;;41.42;23.10;;;;;;;-0.58;100.00;101118.39;1791110;79;21018;-72
2021/01/12 08:15:57;;;;;;;33.18;19.07;;;;;;;-0.54;100.00;101117.30;1780482;79;21262;-71
2021/01/12 08:18:26;;;;;;;30.77;17.70;;;;;;;-0.48;100.00;101118.70;1786578;79;22204;-71
2021/01/12 08:20:55;;;;;;;27.50;16.35;;;;;;;-0.44;100.00;101106.06;1750397;79;21133;-71
2021/01/12 08:23:23;;;;;;;25.80;16.52;;;;;;;-0.37;100.00;101102.69;1786969;79;21133;-72
2021/01/12 08:25:52;;;;;;;28.47;17.48;;;;;;;-0.33;100.00;101106.72;1782358;79;21529;-71
2021/01/12 08:28:23;;;;;;;31.10;18.73;;;;;;;-0.30;100.00;101104.80;1789259;79;21515;-71
2021/01/12 08:30:51;;;;;;;27.30;17.62;;;;;;;-0.27;100.00;101095.62;1782653;79;21161;-73
2021/01/12 08:33:28;;;;;;;29.60;19.15;;;;;;;-0.23;100.00;101101.38;1785797;79;21078;-74
2021/01/12 08:36:13;;;;;;;35.75;21.05;;;;;;;-0.18;100.00;101103.69;1789261;79;21074;-74
2021/01/12 08:38:43;;;;;;;38.55;21.68;;;;;;;-0.13;100.00;101101.66;1754873;79;21134;-75
2021/01/12 08:41:11;;;;;;;33.55;21.02;;;;;;;-0.11;100.00;101088.31;1769589;79;21437;-70
2021/01/12 08:43:40;;;;;;;34.45;19.48;;;;;;;-0.07;100.00;101082.90;1783945;79;21122;-71
2021/01/12 08:46:08;;;;;;;32.80;20.15;;;;;;;-0.06;100.00;101075.56;1783622;79;21196;-71
2021/01/12 08:48:38;;;;;;;26.42;16.70;;;;;;;-0.03;100.00;101080.97;1785990;79;20998;-70
2021/01/12 08:51:15;;;;;;;26.52;17.35;;;;;;;0.02;100.00;101067.41;1772013;79;21556;-72
2021/01/12 08:53:45;;;;;;;27.45;18.20;;;;;;;0.06;100.00;101060.34;1790217;79;21559;-73
2021/01/12 08:56:14;;;;;;;29.10;17.55;;;;;;;0.05;100.00;101058.70;1745922;79;21185;-71
2021/01/12 08:58:47;;;;;;;29.48;20.12;;;;;;;0.04;100.00;101054.48;1736618;80;21022;-69
2021/01/12 09:01:14;;;;;;;27.45;16.85;;;;;;;0.02;100.00;101059.71;1722899;81;21207;-69
2021/01/12 09:03:44;;;;;;;27.20;17.57;;;;;;;0.04;100.00;101033.54;1712662;82;21200;-69
2021/01/12 09:06:19;;;;;;;29.80;19.67;;;;;;;0.02;100.00;101039.20;1729191;81;21258;-71
2021/01/12 09:08:48;;;;;;;36.30;20.77;;;;;;;0.02;100.00;101036.64;1787154;79;21031;-70
2021/01/12 09:11:16;;;;;;;42.73;26.23;;;;;;;0.07;100.00;101027.37;1782738;79;21104;-73
2021/01/12 09:13:45;;;;;;;53.23;30.48;;;;;;;0.11;100.00;101028.83;1785238;79;21514;-73
2021/01/12 09:16:20;;;;;;;57.83;31.30;;;;;;;0.11;100.00;101016.83;1778727;79;21211;-71
2021/01/12 09:18:49;;;;;;;55.92;27.95;;;;;;;0.11;100.00;101014.73;1773451;79;22457;-69
2021/01/12 09:21:17;;;;;;;46.55;23.73;;;;;;;0.09;100.00;101008.89;1773044;79;21448;-73
2021/01/12 09:23:46;;;;;;;43.80;23.90;;;;;;;0.08;100.00;101027.77;1724123;79;21196;-72
2021/01/12 09:26:14;;;;;;;44.25;24.35;;;;;;;0.15;100.00;101028.56;1775988;79;21161;-70
2021/01/12 09:28:43;;;;;;;39.08;24.10;;;;;;;0.21;100.00;101026.87;1746076;80;21018;-70
2021/01/12 09:31:14;;;;;;;43.30;23.38;;;;;;;0.26;100.00;101029.14;1777366;79;22294;-70
2021/01/12 09:33:55;;;;;;;35.43;21.68;;;;;;;0.33;100.00;101023.98;1786855;79;21217;-69
2021/01/12 09:36:32;;;;;;;31.65;19.77;;;;;;;0.40;100.00;101013.70;1745384;79;21632;-70
2021/01/12 09:39:06;;;;;;;31.97;20.32;;;;;;;0.50;100.00;101010.09;1779404;79;21043;-69
2021/01/12 09:41:34;;;;;;;29.63;17.65;;;;;;;0.51;100.00;101005.31;1768811;79;21219;-73
2021/01/12 09:44:03;;;;;;;29.77;17.65;;;;;;;0.51;100.00;100991.20;1782416;79;22568;-73
2021/01/12 09:46:31;;;;;;;29.35;19.37;;;;;;;0.52;100.00;100974.06;1777103;79;21678;-71
2021/01/12 09:48:59;;;;;;;27.30;16.40;;;;;;;0.54;100.00;100982.03;1778692;79;21149;-72
2021/01/12 09:51:28;;;;;;;33.23;21.00;;;;;;;0.63;100.00;100998.09;1773208;79;21664;-71
2021/01/12 09:53:57;;;;;;;47.88;23.85;;;;;;;0.75;100.00;100998.21;1781962;79;21529;-71
2021/01/12 09:56:27;;;;;;;25.05;15.50;;;;;;;0.85;100.00;100983.86;1780169;79;22723;-70
2021/01/12 09:58:55;;;;;;;23.50;15.00;;;;;;;0.97;100.00;100988.16;1780132;79;21193;-71
2021/01/12 10:01:24;;;;;;;23.85;15.78;;;;;;;1.09;100.00;100971.11;1782383;79;21145;-70
2021/01/12 10:03:54;;;;;;;27.25;16.07;;;;;;;1.18;100.00;100964.89;1785819;79;21142;-70
2021/01/12 10:06:22;;;;;;;22.65;15.08;;;;;;;1.29;100.00;100968.45;1779667;79;21110;-70
2021/01/12 10:08:51;;;;;;;20.95;14.30;;;;;;;1.34;100.00;100958.70;1777248;79;21269;-68
2021/01/12 10:11:21;;;;;;;20.25;13.10;;;;;;;1.32;100.00;100947.23;1781140;79;21587;-69
2021/01/12 10:13:50;;;;;;;17.92;11.90;;;;;;;1.29;100.00;100949.19;1781867;79;21137;-72
2021/01/12 10:16:24;;;;;;;17.85;12.20;;;;;;;1.24;100.00;100949.98;1781803;79;21164;-72
2021/01/12 10:18:53;;;;;;;21.35;13.45;;;;;;;1.16;100.00;100946.19;1783593;79;21180;-70
2021/01/12 10:21:22;;;;;;;20.90;13.28;;;;;;;1.09;100.00;100932.13;1779674;79;21205;-70
2021/01/12 10:23:51;;;;;;;16.00;10.63;;;;;;;0.95;100.00;100937.41;1794200;79;21014;-70
2021/01/12 10:26:22;;;;;;;16.82;11.70;;;;;;;0.84;100.00;100940.69;1783655;79;21153;-70
2021/01/12 10:28:51;;;;;;;19.80;11.93;;;;;;;0.73;100.00;100939.30;1785146;79;21121;-71
2021/01/12 10:31:20;;;;;;;19.48;12.00;;;;;;;0.61;100.00;100937.09;1790111;79;21209;-71
2021/01/12 10:33:49;;;;;;;19.48;12.30;;;;;;;0.51;100.00;100942.47;1789579;79;21201;-71
2021/01/12 10:36:19;;;;;;;16.25;8.45;;;;;;;0.46;100.00;100946.63;1781044;79;21553;-70
2021/01/12 10:38:48;;;;;;;16.67;10.32;;;;;;;0.41;100.00;100962.76;1784306;79;21146;-71
2021/01/12 10:41:16;;;;;;;11.90;7.10;;;;;;;0.31;100.00;100964.30;1778739;79;21118;-70
2021/01/12 10:43:46;;;;;;;12.25;6.95;;;;;;;0.23;100.00;100951.16;1789300;79;21181;-70
2021/01/12 10:46:16;;;;;;;10.68;6.30;;;;;;;0.15;100.00;100960.62;1785672;79;22723;-71
2021/01/12 10:48:44;;;;;;;7.85;4.92;;;;;;;0.09;100.00;100973.83;1786180;79;21663;-70
2021/01/12 10:51:20;;;;;;;9.23;5.53;;;;;;;0.03;100.00;100969.08;1796103;79;21173;-70
2021/01/12 10:53:48;;;;;;;10.78;6.50;;;;;;;-0.05;100.00;100943.12;1788348;79;21121;-70
2021/01/12 10:56:16;;;;;;;11.38;6.85;;;;;;;-0.18;100.00;100936.68;1788166;79;21196;-70
2021/01/12 10:58:45;;;;;;;9.20;4.87;;;;;;;-0.30;100.00;100939.56;1787239;79;22504;-70
2021/01/12 11:01:17;;;;;;;9.38;5.35;;;;;;;-0.33;100.00;100926.94;1796146;79;21140;-70
2021/01/12 11:03:45;;;;;;;9.85;4.97;;;;;;;-0.35;100.00;100915.95;1780147;79;21683;-70
2021/01/12 11:06:19;;;;;;;10.85;5.42;;;;;;;-0.42;100.00;100922.38;1776027;79;21117;-70
2021/01/12 11:08:49;;;;;;;12.58;6.97;;;;;;;-0.50;100.00;100920.75;1787525;79;21100;-70
2021/01/12 11:11:20;;;;;;;10.63;6.60;;;;;;;-0.58;100.00;100914.01;1787350;79;21191;-69
2021/01/12 11:13:48;;;;;;;;;;;;;;;-0.66;100.00;100918.78;1785003;79;21146;-70
2021/01/12 11:16:17;;;;;;;11.03;6.70;;;;;;;-0.71;100.00;100910.58;1786738;79;20224;-70
2021/01/12 11:19:10;;;;;;;13.20;8.18;;;;;;;-0.74;100.00;100903.44;1786402;79;21203;-70
2021/01/12 11:21:46;;;;;;;11.35;6.58;;;;;;;-0.72;100.00;100889.70;1664465;84;21227;-69
2021/01/12 11:24:23;;;;;;;12.30;6.67;;;;;;;-0.68;100.00;100896.28;1633579;85;21285;-69
2021/01/12 11:26:53;;;;;;;11.70;7.05;;;;;;;-0.60;100.00;100890.25;1631277;85;21176;-69
2021/01/12 11:29:22;;;;;;;10.58;6.15;;;;;;;-0.53;100.00;100888.49;1638878;85;21235;-69
2021/01/12 11:31:52;;;;;;;11.73;7.72;;;;;;;-0.48;100.00;100886.92;1664381;84;21145;-69
2021/01/12 11:34:21;;;;;;;10.82;6.10;;;;;;;-0.47;100.00;100878.31;1616742;84;21568;-70
2021/01/12 11:36:50;;;;;;;11.35;5.90;;;;;;;-0.45;100.00;100866.24;1630674;85;21383;-70
2021/01/12 11:39:19;;;;;;;12.35;6.67;;;;;;;-0.50;100.00;100869.53;1631580;86;21796;-70
2021/01/12 11:41:52;;;;;;;11.30;5.70;;;;;;;-0.53;100.00;100875.69;1633005;86;21228;-70
2021/01/12 11:44:22;;;;;;;10.38;5.72;;;;;;;-0.54;100.00;100884.27;1631994;85;21192;-70
2021/01/12 11:46:51;;;;;;;13.93;7.78;;;;;;;-0.59;100.00;100902.95;1610164;86;21189;-70
2021/01/12 11:49:19;;;;;;;12.43;7.47;;;;;;;-0.67;100.00;100892.83;1634804;85;21766;-70
2021/01/12 11:51:49;;;;;;;13.35;7.42;;;;;;;-0.78;100.00;100898.14;1631317;85;21737;-70
2021/01/12 11:54:18;;;;;;;12.90;7.70;;;;;;;-0.84;100.00;100893.84;1632314;85;21949;-66
2021/01/12 11:56:55;;;;;;;13.13;7.65;;;;;;;-0.87;100.00;100892.32;1663836;84;21211;-66
2021/01/12 11:59:26;;;;;;;11.65;7.42;;;;;;;-0.87;100.00;100905.12;1659546;84;21587;-67
2021/01/12 12:01:55;;;;;;;13.25;7.17;;;;;;;-0.84;100.00;100910.48;1662514;84;21377;-67
2021/01/12 12:04:25;;;;;;;19.92;10.88;;;;;;;-0.82;100.00;100912.05;1661412;84;21615;-67
2021/01/12 12:07:00;;;;;;;15.05;9.10;;;;;;;-0.80;100.00;100897.40;1665044;84;21219;-69
2021/01/12 12:09:29;;;;;;;41.25;28.85;;;;;;;-0.79;100.00;100895.23;1661410;84;21175;-68
2021/01/12 12:11:58;;;;;;;14.33;8.90;;;;;;;-0.78;100.00;100905.00;1662682;84;21172;-69
2021/01/12 12:14:29;;;;;;;15.20;7.92;;;;;;;-0.80;100.00;100897.40;1629924;85;21381;-68
2021/01/12 12:16:58;;;;;;;22.42;12.68;;;;;;;-0.80;100.00;100893.56;1630628;85;21318;-70
2021/01/12 12:19:28;;;;;;;19.95;12.18;;;;;;;-0.83;100.00;100882.72;1612759;86;21208;-68
2021/01/12 12:21:59;;;;;;;18.25;11.08;;;;;;;-0.87;100.00;100880.80;1633537;86;21228;-66
2021/01/12 12:24:31;;;;;;;14.98;8.50;;;;;;;-0.89;100.00;100878.78;1635304;86;21587;-70
2021/01/12 12:27:02;;;;;;;10.80;7.15;;;;;;;-0.91;100.00;100884.47;1651873;85;21224;-70
2021/01/12 12:29:31;;;;;;;10.32;5.97;;;;;;;-0.92;100.00;100894.78;1653895;85;21030;-68
2021/01/12 12:32:05;;;;;;;13.80;8.10;;;;;;;-0.95;100.00;100889.38;1693316;83;21065;-69
2021/01/12 12:34:35;;;;;;;12.05;6.30;;;;;;;-0.97;100.00;100888.67;1692561;83;21242;-69
2021/01/12 12:37:09;;;;;;;11.43;6.55;;;;;;;-0.97;100.00;100893.78;1654522;84;21222;-69
2021/01/12 12:39:35;;;;;;;13.05;7.28;;;;;;;-1.02;100.00;100875.34;1660184;85;21158;-68
2021/01/12 12:42:05;;;;;;;10.23;6.22;;;;;;;-1.05;100.00;100869.94;1690281;83;21172;-68
2021/01/12 12:44:34;;;;;;;14.38;9.00;;;;;;;-1.06;100.00;100872.58;1658239;85;21195;-69
2021/01/12 12:47:02;;;;;;;14.40;8.80;;;;;;;-1.05;100.00;100865.29;1692472;83;22451;-69
2021/01/12 12:49:31;;;;;;;12.78;8.33;;;;;;;-1.02;100.00;100871.50;1655638;84;21223;-69
2021/01/12 12:52:00;;;;;;;13.40;7.70;;;;;;;-1.02;100.00;100862.09;1659428;84;21410;-68
2021/01/12 12:54:31;;;;;;;16.70;8.73;;;;;;;-1.01;100.00;100860.34;1642377;85;22163;-69
2021/01/12 12:56:59;;;;;;;12.82;8.35;;;;;;;-1.02;100.00;100859.99;1640433;85;21270;-69
2021/01/12 12:59:29;;;;;;;15.50;8.68;;;;;;;-1.05;100.00;100864.01;1653279;85;21046;-68
2021/01/12 13:01:59;;;;;;;17.27;10.90;;;;;;;-1.12;100.00;100860.99;1615981;85;21216;-69
2021/01/12 13:04:28;;;;;;;25.40;16.52;;;;;;;-1.16;100.00;100862.09;1653023;85;23387;-69
2021/01/12 13:06:57;;;;;;;16.80;9.73;;;;;;;-1.19;100.00;100883.20;1651444;85;21244;-69
2021/01/12 13:09:28;;;;;;;59.70;29.10;;;;;;;-1.25;100.00;100891.61;1651782;85;21275;-69
2021/01/12 13:11:57;;;;;;;35.17;19.12;;;;;;;-1.25;100.00;100904.83;1648088;85;21702;-69
2021/01/12 13:14:25;;;;;;;65.92;28.87;;;;;;;-1.27;100.00;100897.73;1694492;83;21009;-69
2021/01/12 13:16:54;;;;;;;22.85;12.73;;;;;;;-1.31;100.00;100887.31;1695979;83;21226;-69
2021/01/12 13:19:22;;;;;;;11.95;7.05;;;;;;;-1.37;100.00;100881.27;1693192;83;21230;-69
2021/01/12 13:21:53;;;;;;;34.00;16.07;;;;;;;-1.44;100.00;100876.15;1667059;84;21262;-69
2021/01/12 13:24:23;;;;;;;;;;;;;;;-1.51;100.00;100882.11;1670876;84;21673;-69
2021/01/12 13:26:52;;;;;;;50.43;33.42;;;;;;;-1.55;100.00;100886.58;1665505;84;20322;-69
2021/01/12 13:29:20;;;;;;;34.75;18.52;;;;;;;-1.59;100.00;100880.42;1670707;84;21685;-69
2021/01/12 13:31:51;;;;;;;27.32;13.98;;;;;;;-1.61;100.00;100866.93;1668572;84;21162;-70
2021/01/12 13:34:19;;;;;;;24.18;11.85;;;;;;;-1.63;100.00;100852.97;1667271;84;21226;-69
2021/01/12 13:36:48;;;;;;;31.07;12.33;;;;;;;-1.66;100.00;100851.05;1669592;84;22270;-69
2021/01/12 13:39:18;;;;;;;14.87;8.13;;;;;;;-1.69;100.00;100842.28;1665386;84;21211;-69
2021/01/12 13:41:46;;;;;;;30.55;14.60;;;;;;;-1.72;100.00;100826.20;1670631;84;23616;-71
2021/01/12 13:44:16;;;;;;;50.23;20.95;;;;;;;-1.73;100.00;100817.36;1668651;84;21721;-68
2021/01/12 13:46:46;;;;;;;27.00;12.07;;;;;;;-1.74;100.00;100828.03;1664971;84;21685;-68
2021/01/12 13:49:15;;;;;;;9.83;5.87;;;;;;;-1.76;100.00;100840.06;1666245;84;21679;-68
2021/01/12 13:51:45;;;;;;;81.72;21.75;;;;;;;-1.80;100.00;100836.05;1665234;84;21470;-68
2021/01/12 13:54:15;;;;;;;133.80;36.42;;;;;;;-1.82;100.00;100840.87;1666188;84;22223;-68
2021/01/12 13:56:44;;;;;;;84.32;29.18;;;;;;;-1.85;100.00;100839.34;1667231;84;22357;-67
2021/01/12 13:59:13;;;;;;;203.35;64.58;;;;;;;-1.85;100.00;100834.69;1665810;84;21630;-68
2021/01/12 14:01:41;;;;;;;35.10;14.30;;;;;;;-1.86;100.00;100842.78;1675105;84;21585;-68
2021/01/12 14:04:12;;;;;;;22.40;11.45;;;;;;;-1.88;100.00;100842.06;1668259;84;21128;-67
2021/01/12 14:06:40;;;;;;;30.05;13.62;;;;;;;-1.91;100.00;100833.30;1665376;84;21396;-68
2021/01/12 14:09:09;;;;;;;26.42;14.03;;;;;;;-1.94;100.00;100836.02;1667645;84;21230;-68
2021/01/12 14:11:40;;;;;;;26.42;11.38;;;;;;;-1.96;100.00;100815.68;1666659;84;21573;-67
2021/01/12 14:14:09;;;;;;;41.75;18.05;;;;;;;-1.99;100.00;100823.98;1664570;84;21187;-67
2021/01/12 14:16:44;;;;;;;125.55;53.15;;;;;;;-2.00;100.00;100824.90;1666763;84;21156;-68
2021/01/12 14:19:16;;;;;;;66.65;30.25;;;;;;;-2.01;100.00;100827.06;1670893;84;22135;-67
2021/01/12 14:21:46;;;;;;;;;;;;;;;-2.01;100.00;100823.23;1663810;84;21531;-67
2021/01/12 14:24:36;;;;;;;172.75;74.10;;;;;;;-2.01;100.00;100820.25;1662201;84;20319;-68
2021/01/12 14:27:10;;;;;;;162.40;57.70;;;;;;;-2.01;100.00;100821.95;1716953;81;21674;-69
2021/01/12 14:29:39;;;;;;;241.15;86.05;;;;;;;-2.01;100.00;100824.08;1711937;82;21140;-68
2021/01/12 14:32:09;;;;;;;54.42;25.00;;;;;;;-2.02;100.00;100834.37;1717468;82;21509;-68
2021/01/12 14:34:38;;;;;;;114.65;39.70;;;;;;;-2.03;100.00;100836.56;1711769;81;21147;-68
2021/01/12 14:37:13;;;;;;;100.72;50.23;;;;;;;-2.05;100.00;100838.37;1713096;82;21203;-67
2021/01/12 14:39:56;;;;;;;75.08;35.85;;;;;;;-2.05;100.00;100837.91;1714693;82;21339;-68
2021/01/12 14:42:26;;;;;;;138.00;56.48;;;;;;;-2.05;100.00;100821.77;1710822;82;21196;-70
2021/01/12 14:44:55;;;;;;;38.33;23.80;;;;;;;-2.07;100.00;100812.11;1711970;81;22127;-67
2021/01/12 14:47:24;;;;;;;18.65;11.83;;;;;;;-2.10;100.00;100805.89;1713521;81;21242;-68
2021/01/12 14:49:53;;;;;;;18.80;12.53;;;;;;;-2.13;100.00;100795.39;1714759;81;21145;-70
2021/01/12 14:52:22;;;;;;;21.40;13.00;;;;;;;-2.15;100.00;100784.91;1715858;81;20976;-67
2021/01/12 14:54:52;;;;;;;19.65;13.75;;;;;;;-2.17;100.00;100764.55;1716600;81;21187;-67
2021/01/12 14:57:21;;;;;;;20.92;12.98;;;;;;;-2.19;100.00;100756.63;1713170;81;21551;-68
2021/01/12 14:59:50;;;;;;;20.02;13.90;;;;;;;-2.22;100.00;100758.44;1713318;81;21037;-69
2021/01/12 15:02:20;;;;;;;18.00;11.63;;;;;;;-2.23;100.00;100763.19;1712842;81;21582;-68
2021/01/12 15:04:48;;;;;;;22.58;13.68;;;;;;;-2.24;100.00;100764.08;1715881;82;21065;-67
2021/01/12 15:07:17;;;;;;;20.77;13.55;;;;;;;-2.25;100.00;100773.11;1712688;81;21594;-67
2021/01/12 15:09:47;;;;;;;24.72;14.60;;;;;;;-2.25;100.00;100778.22;1716537;81;21383;-69
2021/01/12 15:12:15;;;;;;;22.40;15.13;;;;;;;-2.26;100.00;100782.51;1712844;81;20998;-68
2021/01/12 15:14:46;;;;;;;23.83;16.35;;;;;;;-2.26;100.00;100782.51;1715425;81;21227;-68
2021/01/12 15:17:15;;;;;;;22.55;13.72;;;;;;;-2.28;100.00;100768.99;1708602;81;21014;-68
2021/01/12 15:19:44;;;;;;;25.65;16.45;;;;;;;-2.29;100.00;100765.27;1715098;82;21605;-68
2021/01/12 15:22:13;;;;;;;20.75;14.38;;;;;;;-2.30;100.00;100761.08;1684142;83;21373;-68